Terminal Aerodrome Forecast
Issued by NWS

Home | Current Version | Previous Version | Text Only | Print | Product List | Glossary On
Versions: 1 2 3 4 5 6 7 8 9 10 11 12 13
000
FTUS46 KEKA 261121
TAFUKI
TAF
KUKI 261121Z 2612/2712 VRB03KT P6SM SKC
     FM262000 28011KT P6SM VCSH BKN040
     FM270300 31010KT P6SM -SHRA SCT025 OVC050
     FM270700 31005KT P6SM VCSH OVC050=

USA.gov is the U.S. government's official web portal to all federal, state and local government web resources and services.